sensor_id;sensor_type;location;lat;lon;timestamp;pressure;altitude;pressure_sealevel;temperature;humidity
22440;BME280;11387;51.612;7.210;2023-02-11T00:00:16;102520.38;;;5.88;84.41
22440;BME280;11387;51.612;7.210;2023-02-11T00:02:45;102512.66;;;5.85;84.40
22440;BME280;11387;51.612;7.210;2023-02-11T00:05:15;102506.25;;;5.79;84.48
22440;BME280;11387;51.612;7.210;2023-02-11T00:07:44;102510.63;;;5.80;84.17
22440;BME280;11387;51.612;7.210;2023-02-11T00:10:12;102501.88;;;5.78;84.89
22440;BME280;11387;51.612;7.210;2023-02-11T00:12:41;102497.53;;;5.70;84.87
22440;BME280;11387;51.612;7.210;2023-02-11T00:15:10;102505.94;;;5.62;84.98
22440;BME280;11387;51.612;7.210;2023-02-11T00:17:38;102508.53;;;5.51;85.67
22440;BME280;11387;51.612;7.210;2023-02-11T00:20:07;102504.16;;;5.50;86.14
22440;BME280;11387;51.612;7.210;2023-02-11T00:22:37;102502.28;;;5.50;85.83
22440;BME280;11387;51.612;7.210;2023-02-11T00:25:06;102507.25;;;5.53;86.10
22440;BME280;11387;51.612;7.210;2023-02-11T00:27:35;102497.00;;;5.55;86.01
22440;BME280;11387;51.612;7.210;2023-02-11T00:30:05;102498.63;;;5.63;85.67
22440;BME280;11387;51.612;7.210;2023-02-11T00:32:33;102504.84;;;5.70;85.85
22440;BME280;11387;51.612;7.210;2023-02-11T00:35:02;102506.13;;;5.67;84.94
22440;BME280;11387;51.612;7.210;2023-02-11T00:37:30;102501.91;;;5.71;84.99
22440;BME280;11387;51.612;7.210;2023-02-11T00:40:04;102498.16;;;5.72;85.20
22440;BME280;11387;51.612;7.210;2023-02-11T00:42:33;102493.88;;;5.83;84.89
22440;BME280;11387;51.612;7.210;2023-02-11T00:45:03;102494.34;;;5.80;84.51
22440;BME280;11387;51.612;7.210;2023-02-11T00:47:32;102489.75;;;5.81;84.15
22440;BME280;11387;51.612;7.210;2023-02-11T00:50:00;102498.56;;;5.76;84.43
22440;BME280;11387;51.612;7.210;2023-02-11T00:52:30;102500.25;;;5.70;85.08
22440;BME280;11387;51.612;7.210;2023-02-11T00:54:59;102493.44;;;5.86;84.24
22440;BME280;11387;51.612;7.210;2023-02-11T00:57:29;102491.84;;;5.79;84.37
22440;BME280;11387;51.612;7.210;2023-02-11T00:59:57;102494.03;;;5.88;84.33
22440;BME280;11387;51.612;7.210;2023-02-11T01:02:26;102488.41;;;5.90;83.77
22440;BME280;11387;51.612;7.210;2023-02-11T01:04:55;102490.22;;;6.02;83.47
22440;BME280;11387;51.612;7.210;2023-02-11T01:07:24;102488.59;;;5.95;83.90
22440;BME280;11387;51.612;7.210;2023-02-11T01:09:53;102490.00;;;6.04;83.28
22440;BME280;11387;51.612;7.210;2023-02-11T01:12:22;102490.44;;;6.01;83.19
22440;BME280;11387;51.612;7.210;2023-02-11T01:14:52;102493.31;;;6.06;82.98
22440;BME280;11387;51.612;7.210;2023-02-11T01:17:21;102488.16;;;5.98;83.70
22440;BME280;11387;51.612;7.210;2023-02-11T01:19:49;102494.97;;;6.07;82.58
22440;BME280;11387;51.612;7.210;2023-02-11T01:22:18;102505.41;;;6.10;82.50
22440;BME280;11387;51.612;7.210;2023-02-11T01:24:46;102505.84;;;6.07;82.79
22440;BME280;11387;51.612;7.210;2023-02-11T01:27:15;102506.72;;;6.01;82.90
22440;BME280;11387;51.612;7.210;2023-02-11T01:29:43;102496.25;;;6.04;82.74
22440;BME280;11387;51.612;7.210;2023-02-11T01:32:13;102492.03;;;6.08;82.91
22440;BME280;11387;51.612;7.210;2023-02-11T01:34:41;102508.56;;;6.07;82.01
22440;BME280;11387;51.612;7.210;2023-02-11T01:37:10;102503.25;;;6.12;82.15
22440;BME280;11387;51.612;7.210;2023-02-11T01:39:38;102507.28;;;6.10;82.35
22440;BME280;11387;51.612;7.210;2023-02-11T01:42:08;102499.13;;;6.10;82.20
22440;BME280;11387;51.612;7.210;2023-02-11T01:44:38;102497.47;;;6.08;82.51
22440;BME280;11387;51.612;7.210;2023-02-11T01:47:07;102491.81;;;6.10;81.85
22440;BME280;11387;51.612;7.210;2023-02-11T01:49:38;102494.53;;;6.10;81.75
22440;BME280;11387;51.612;7.210;2023-02-11T01:52:10;102488.50;;;6.08;81.93
22440;BME280;11387;51.612;7.210;2023-02-11T01:54:43;102487.44;;;6.09;82.01
22440;BME280;11387;51.612;7.210;2023-02-11T01:57:33;102484.56;;;6.04;82.23
22440;BME280;11387;51.612;7.210;2023-02-11T02:00:07;102480.78;;;6.05;82.09
22440;BME280;11387;51.612;7.210;2023-02-11T02:02:44;102478.50;;;6.02;81.94
22440;BME280;11387;51.612;7.210;2023-02-11T02:05:21;102463.88;;;6.03;82.65
22440;BME280;11387;51.612;7.210;2023-02-11T02:07:59;102459.03;;;6.05;82.40
22440;BME280;11387;51.612;7.210;2023-02-11T02:10:33;102441.34;;;5.96;82.55
22440;BME280;11387;51.612;7.210;2023-02-11T02:13:02;102440.78;;;5.87;83.29
22440;BME280;11387;51.612;7.210;2023-02-11T02:15:32;102441.53;;;6.01;82.33
22440;BME280;11387;51.612;7.210;2023-02-11T02:18:11;102446.56;;;5.97;82.58
22440;BME280;11387;51.612;7.210;2023-02-11T02:21:12;102434.47;;;5.93;83.29
22440;BME280;11387;51.612;7.210;2023-02-11T02:24:08;102454.50;;;5.99;82.86
22440;BME280;11387;51.612;7.210;2023-02-11T02:27:23;102473.97;;;5.96;82.91
22440;BME280;11387;51.612;7.210;2023-02-11T02:30:10;102471.13;;;6.09;82.56
22440;BME280;11387;51.612;7.210;2023-02-11T02:32:59;102477.63;;;6.08;82.00
22440;BME280;11387;51.612;7.210;2023-02-11T02:35:54;102453.22;;;6.01;82.02
22440;BME280;11387;51.612;7.210;2023-02-11T02:38:29;102454.44;;;6.05;82.77
22440;BME280;11387;51.612;7.210;2023-02-11T02:41:02;102458.59;;;6.08;81.88
22440;BME280;11387;51.612;7.210;2023-02-11T02:43:32;102453.66;;;5.98;82.67
22440;BME280;11387;51.612;7.210;2023-02-11T02:46:12;102450.72;;;6.00;83.04
22440;BME280;11387;51.612;7.210;2023-02-11T02:48:43;102456.16;;;6.00;82.49
22440;BME280;11387;51.612;7.210;2023-02-11T02:54:13;102445.78;;;5.90;83.21
22440;BME280;11387;51.612;7.210;2023-02-11T02:56:51;102439.53;;;5.90;83.10
22440;BME280;11387;51.612;7.210;2023-02-11T02:59:35;102436.16;;;5.88;83.17
22440;BME280;11387;51.612;7.210;2023-02-11T03:02:11;102438.63;;;5.96;82.32
22440;BME280;11387;51.612;7.210;2023-02-11T03:04:47;102441.59;;;5.88;83.09
22440;BME280;11387;51.612;7.210;2023-02-11T03:07:21;102432.84;;;5.86;83.29
22440;BME280;11387;51.612;7.210;2023-02-11T03:09:56;102439.41;;;5.78;83.80
22440;BME280;11387;51.612;7.210;2023-02-11T03:12:29;102430.00;;;5.81;83.22
22440;BME280;11387;51.612;7.210;2023-02-11T03:15:00;102442.88;;;5.85;83.08
22440;BME280;11387;51.612;7.210;2023-02-11T03:17:32;102444.53;;;5.93;83.13
22440;BME280;11387;51.612;7.210;2023-02-11T03:20:04;102452.28;;;5.89;83.44
22440;BME280;11387;51.612;7.210;2023-02-11T03:22:38;102459.94;;;5.99;83.03
22440;BME280;11387;51.612;7.210;2023-02-11T03:25:08;102454.16;;;5.89;83.20
22440;BME280;11387;51.612;7.210;2023-02-11T03:27:40;102466.28;;;5.86;82.90
22440;BME280;11387;51.612;7.210;2023-02-11T03:30:13;102459.19;;;5.85;83.29
22440;BME280;11387;51.612;7.210;2023-02-11T03:32:48;102450.06;;;5.80;83.62
22440;BME280;11387;51.612;7.210;2023-02-11T03:35:20;102444.63;;;5.80;83.90
22440;BME280;11387;51.612;7.210;2023-02-11T03:37:53;102445.19;;;5.82;83.62
22440;BME280;11387;51.612;7.210;2023-02-11T03:40:26;102436.69;;;5.78;83.93
22440;BME280;11387;51.612;7.210;2023-02-11T03:42:58;102428.31;;;5.80;83.92
22440;BME280;11387;51.612;7.210;2023-02-11T03:45:28;102448.41;;;5.79;84.02
22440;BME280;11387;51.612;7.210;2023-02-11T03:48:00;102436.69;;;5.78;84.11
22440;BME280;11387;51.612;7.210;2023-02-11T03:50:32;102426.75;;;5.65;84.54
22440;BME280;11387;51.612;7.210;2023-02-11T03:53:03;102432.97;;;5.72;84.24
22440;BME280;11387;51.612;7.210;2023-02-11T03:55:35;102426.31;;;5.68;84.53
22440;BME280;11387;51.612;7.210;2023-02-11T03:58:05;102426.16;;;5.63;84.72
22440;BME280;11387;51.612;7.210;2023-02-11T04:00:36;102417.22;;;5.56;85.50
22440;BME280;11387;51.612;7.210;2023-02-11T04:03:06;102430.63;;;5.51;85.57
22440;BME280;11387;51.612;7.210;2023-02-11T04:05:36;102436.06;;;5.51;86.16
22440;BME280;11387;51.612;7.210;2023-02-11T04:08:05;102426.41;;;5.55;86.03
22440;BME280;11387;51.612;7.210;2023-02-11T04:10:34;102432.03;;;5.60;86.40
22440;BME280;11387;51.612;7.210;2023-02-11T04:13:02;102436.88;;;5.52;86.47
22440;BME280;11387;51.612;7.210;2023-02-11T04:15:31;102431.84;;;5.55;86.51
22440;BME280;11387;51.612;7.210;2023-02-11T04:17:59;102436.41;;;5.61;86.29
22440;BME280;11387;51.612;7.210;2023-02-11T04:20:29;102435.69;;;5.48;86.92
22440;BME280;11387;51.612;7.210;2023-02-11T04:22:59;102437.34;;;5.49;87.67
22440;BME280;11387;51.612;7.210;2023-02-11T04:25:28;102441.94;;;5.48;87.39
22440;BME280;11387;51.612;7.210;2023-02-11T04:27:56;102443.63;;;5.49;87.50
22440;BME280;11387;51.612;7.210;2023-02-11T04:30:25;102450.09;;;5.48;88.13
22440;BME280;11387;51.612;7.210;2023-02-11T04:32:53;102459.50;;;5.46;88.92
22440;BME280;11387;51.612;7.210;2023-02-11T04:35:21;102459.53;;;5.39;88.79
22440;BME280;11387;51.612;7.210;2023-02-11T04:37:50;102461.44;;;5.38;89.59
22440;BME280;11387;51.612;7.210;2023-02-11T04:40:20;102461.00;;;5.41;89.20
22440;BME280;11387;51.612;7.210;2023-02-11T04:42:48;102463.97;;;5.33;90.08
22440;BME280;11387;51.612;7.210;2023-02-11T04:45:17;102456.91;;;5.26;90.29
22440;BME280;11387;51.612;7.210;2023-02-11T04:47:45;102445.00;;;5.27;90.19
22440;BME280;11387;51.612;7.210;2023-02-11T04:52:42;102435.38;;;5.31;91.03
22440;BME280;11387;51.612;7.210;2023-02-11T04:55:11;102444.75;;;5.35;91.25
22440;BME280;11387;51.612;7.210;2023-02-11T04:57:41;102447.50;;;5.28;91.02
22440;BME280;11387;51.612;7.210;2023-02-11T05:00:10;102447.09;;;5.25;91.11
22440;BME280;11387;51.612;7.210;2023-02-11T05:02:39;102448.75;;;5.26;90.96
22440;BME280;11387;51.612;7.210;2023-02-11T05:05:07;102449.66;;;5.20;91.47
22440;BME280;11387;51.612;7.210;2023-02-11T05:07:36;102449.16;;;5.29;91.29
22440;BME280;11387;51.612;7.210;2023-02-11T05:10:04;102444.38;;;5.25;90.80
22440;BME280;11387;51.612;7.210;2023-02-11T05:12:33;102440.84;;;5.24;91.27
22440;BME280;11387;51.612;7.210;2023-02-11T05:15:03;102442.69;;;5.30;91.48
22440;BME280;11387;51.612;7.210;2023-02-11T05:17:32;102446.44;;;5.29;90.66
22440;BME280;11387;51.612;7.210;2023-02-11T05:20:00;102444.16;;;5.26;91.27
22440;BME280;11387;51.612;7.210;2023-02-11T05:22:29;102441.06;;;5.23;91.62
22440;BME280;11387;51.612;7.210;2023-02-11T05:24:57;102444.59;;;5.23;91.57
22440;BME280;11387;51.612;7.210;2023-02-11T05:27:26;102444.66;;;5.17;91.59
22440;BME280;11387;51.612;7.210;2023-02-11T05:29:55;102442.06;;;5.28;91.62
22440;BME280;11387;51.612;7.210;2023-02-11T05:32:25;102439.56;;;5.27;91.07
22440;BME280;11387;51.612;7.210;2023-02-11T05:34:53;102433.81;;;5.17;91.64
22440;BME280;11387;51.612;7.210;2023-02-11T05:37:22;102434.16;;;5.27;91.24
22440;BME280;11387;51.612;7.210;2023-02-11T05:39:50;102429.34;;;5.29;91.03
22440;BME280;11387;51.612;7.210;2023-02-11T05:42:19;102421.00;;;5.24;90.97
22440;BME280;11387;51.612;7.210;2023-02-11T05:44:47;102419.53;;;5.28;91.04
22440;BME280;11387;51.612;7.210;2023-02-11T05:47:17;102421.22;;;5.22;91.15
22440;BME280;11387;51.612;7.210;2023-02-11T05:49:46;102414.38;;;5.20;91.57
22440;BME280;11387;51.612;7.210;2023-02-11T05:52:15;102420.88;;;5.19;91.80
22440;BME280;11387;51.612;7.210;2023-02-11T05:54:44;102427.34;;;5.18;92.08
22440;BME280;11387;51.612;7.210;2023-02-11T05:57:12;102435.41;;;5.24;91.67
22440;BME280;11387;51.612;7.210;2023-02-11T05:59:41;102430.78;;;5.31;91.06
22440;BME280;11387;51.612;7.210;2023-02-11T06:02:11;102430.38;;;5.28;91.84
22440;BME280;11387;51.612;7.210;2023-02-11T06:04:39;102422.47;;;5.26;91.47
22440;BME280;11387;51.612;7.210;2023-02-11T06:07:09;102423.91;;;5.29;91.75
22440;BME280;11387;51.612;7.210;2023-02-11T06:09:38;102421.41;;;5.27;91.62
22440;BME280;11387;51.612;7.210;2023-02-11T06:12:06;102432.22;;;5.34;91.41
22440;BME280;11387;51.612;7.210;2023-02-11T06:14:35;102437.69;;;5.27;91.74
22440;BME280;11387;51.612;7.210;2023-02-11T06:17:03;102435.56;;;5.36;91.50
22440;BME280;11387;51.612;7.210;2023-02-11T06:19:32;102431.34;;;5.40;91.17
22440;BME280;11387;51.612;7.210;2023-02-11T06:22:00;102433.94;;;5.28;91.73
22440;BME280;11387;51.612;7.210;2023-02-11T06:24:30;102438.72;;;5.33;91.69
22440;BME280;11387;51.612;7.210;2023-02-11T06:27:19;102433.91;;;5.35;91.71
22440;BME280;11387;51.612;7.210;2023-02-11T06:29:47;102437.22;;;5.37;91.72
22440;BME280;11387;51.612;7.210;2023-02-11T06:32:19;102440.19;;;5.29;91.51
22440;BME280;11387;51.612;7.210;2023-02-11T06:35:07;102437.22;;;5.37;92.38
22440;BME280;11387;51.612;7.210;2023-02-11T06:37:38;102440.81;;;5.31;91.56
22440;BME280;11387;51.612;7.210;2023-02-11T06:40:09;102442.47;;;5.32;92.44
22440;BME280;11387;51.612;7.210;2023-02-11T06:42:37;102440.97;;;5.36;92.14
22440;BME280;11387;51.612;7.210;2023-02-11T06:45:07;102434.75;;;5.29;92.39
22440;BME280;11387;51.612;7.210;2023-02-11T06:47:37;102429.34;;;5.29;92.06
22440;BME280;11387;51.612;7.210;2023-02-11T06:50:09;102438.28;;;5.36;92.53
22440;BME280;11387;51.612;7.210;2023-02-11T06:52:38;102448.06;;;5.37;92.06
22440;BME280;11387;51.612;7.210;2023-02-11T06:55:08;102447.06;;;5.31;92.54
22440;BME280;11387;51.612;7.210;2023-02-11T06:57:36;102446.66;;;5.28;92.99
22440;BME280;11387;51.612;7.210;2023-02-11T07:00:06;102452.88;;;5.35;92.28
22440;BME280;11387;51.612;7.210;2023-02-11T07:02:35;102462.09;;;5.34;92.77
22440;BME280;11387;51.612;7.210;2023-02-11T07:05:05;102454.38;;;5.31;92.69
22440;BME280;11387;51.612;7.210;2023-02-11T07:07:34;102447.06;;;5.31;92.84
22440;BME280;11387;51.612;7.210;2023-02-11T07:10:03;102443.53;;;5.31;93.20
22440;BME280;11387;51.612;7.210;2023-02-11T07:12:33;102453.56;;;5.24;93.21
22440;BME280;11387;51.612;7.210;2023-02-11T07:15:02;102460.44;;;5.26;93.23
22440;BME280;11387;51.612;7.210;2023-02-11T07:17:30;102452.44;;;5.38;93.21
22440;BME280;11387;51.612;7.210;2023-02-11T07:19:59;102459.13;;;5.42;92.68
22440;BME280;11387;51.612;7.210;2023-02-11T07:22:27;102463.75;;;5.35;92.98
22440;BME280;11387;51.612;7.210;2023-02-11T07:24:56;102460.19;;;5.34;93.30
22440;BME280;11387;51.612;7.210;2023-02-11T07:27:31;102465.22;;;5.31;93.33
22440;BME280;11387;51.612;7.210;2023-02-11T07:30:01;102467.47;;;5.40;93.52
22440;BME280;11387;51.612;7.210;2023-02-11T07:32:33;102459.53;;;5.39;92.78
22440;BME280;11387;51.612;7.210;2023-02-11T07:35:03;102462.44;;;5.44;93.05
22440;BME280;11387;51.612;7.210;2023-02-11T07:37:32;102461.22;;;5.40;93.22
22440;BME280;11387;51.612;7.210;2023-02-11T07:40:01;102456.84;;;5.39;92.80
22440;BME280;11387;51.612;7.210;2023-02-11T07:42:29;102454.84;;;5.53;92.69
22440;BME280;11387;51.612;7.210;2023-02-11T07:44:58;102459.63;;;5.57;92.24
22440;BME280;11387;51.612;7.210;2023-02-11T07:47:28;102456.13;;;5.50;92.34
22440;BME280;11387;51.612;7.210;2023-02-11T07:49:56;102458.06;;;5.43;92.67
22440;BME280;11387;51.612;7.210;2023-02-11T07:52:28;102465.34;;;5.49;92.69
22440;BME280;11387;51.612;7.210;2023-02-11T07:54:57;102457.63;;;5.46;92.83
22440;BME280;11387;51.612;7.210;2023-02-11T07:57:26;102467.59;;;5.52;92.18
22440;BME280;11387;51.612;7.210;2023-02-11T07:59:54;102472.44;;;5.50;92.14
22440;BME280;11387;51.612;7.210;2023-02-11T08:02:23;102464.66;;;5.54;92.07
22440;BME280;11387;51.612;7.210;2023-02-11T08:04:53;102470.69;;;5.56;92.74
22440;BME280;11387;51.612;7.210;2023-02-11T08:07:21;102462.31;;;5.57;92.78
22440;BME280;11387;51.612;7.210;2023-02-11T08:09:50;102467.59;;;5.52;92.63
22440;BME280;11387;51.612;7.210;2023-02-11T08:12:20;102483.59;;;5.60;92.81
22440;BME280;11387;51.612;7.210;2023-02-11T08:14:48;102494.38;;;5.73;91.97
22440;BME280;11387;51.612;7.210;2023-02-11T08:17:17;102494.38;;;5.73;91.58
22440;BME280;11387;51.612;7.210;2023-02-11T08:19:46;102487.25;;;5.79;91.22
22440;BME280;11387;51.612;7.210;2023-02-11T08:22:15;102497.63;;;5.82;90.93
22440;BME280;11387;51.612;7.210;2023-02-11T08:24:44;102497.19;;;5.85;91.01
22440;BME280;11387;51.612;7.210;2023-02-11T08:27:13;102496.16;;;5.86;90.84
22440;BME280;11387;51.612;7.210;2023-02-11T08:29:41;102503.31;;;5.81;90.80
22440;BME280;11387;51.612;7.210;2023-02-11T08:32:10;102504.19;;;5.74;91.62
22440;BME280;11387;51.612;7.210;2023-02-11T08:34:38;102503.75;;;5.78;91.36
22440;BME280;11387;51.612;7.210;2023-02-11T08:37:07;102503.91;;;5.83;91.01
22440;BME280;11387;51.612;7.210;2023-02-11T08:39:37;102501.38;;;5.88;91.21
22440;BME280;11387;51.612;7.210;2023-02-11T08:42:05;102500.50;;;5.94;90.81
22440;BME280;11387;51.612;7.210;2023-02-11T08:44:34;102504.91;;;5.88;90.41
22440;BME280;11387;51.612;7.210;2023-02-11T08:47:03;102500.28;;;5.95;90.84
22440;BME280;11387;51.612;7.210;2023-02-11T08:49:31;102507.78;;;6.00;90.24
22440;BME280;11387;51.612;7.210;2023-02-11T08:52:00;102508.22;;;5.97;90.54
22440;BME280;11387;51.612;7.210;2023-02-11T08:54:30;102517.56;;;6.07;89.98
22440;BME280;11387;51.612;7.210;2023-02-11T08:57:00;102518.38;;;6.08;89.38
22440;BME280;11387;51.612;7.210;2023-02-11T08:59:29;102523.59;;;6.10;89.42
22440;BME280;11387;51.612;7.210;2023-02-11T09:01:57;102522.28;;;6.12;89.92
22440;BME280;11387;51.612;7.210;2023-02-11T09:04:26;102523.59;;;6.10;89.71
22440;BME280;11387;51.612;7.210;2023-02-11T09:06:54;102527.72;;;6.12;90.13
22440;BME280;11387;51.612;7.210;2023-02-11T09:09:23;102524.50;;;6.22;89.54
22440;BME280;11387;51.612;7.210;2023-02-11T09:11:51;102538.38;;;6.14;89.55
22440;BME280;11387;51.612;7.210;2023-02-11T09:14:25;102530.44;;;6.12;89.28
22440;BME280;11387;51.612;7.210;2023-02-11T09:16:54;102534.56;;;6.21;89.53
22440;BME280;11387;51.612;7.210;2023-02-11T09:19:23;102539.78;;;6.23;89.48
22440;BME280;11387;51.612;7.210;2023-02-11T09:21:52;102540.75;;;6.28;88.86
22440;BME280;11387;51.612;7.210;2023-02-11T09:24:20;102542.81;;;6.33;89.18
22440;BME280;11387;51.612;7.210;2023-02-11T09:26:49;102552.41;;;6.35;88.76
22440;BME280;11387;51.612;7.210;2023-02-11T09:29:17;102552.94;;;6.44;88.12
22440;BME280;11387;51.612;7.210;2023-02-11T09:31:47;102543.94;;;6.43;88.61
22440;BME280;11387;51.612;7.210;2023-02-11T09:34:16;102551.19;;;6.31;88.67
22440;BME280;11387;51.612;7.210;2023-02-11T09:36:45;102551.88;;;6.45;88.43
22440;BME280;11387;51.612;7.210;2023-02-11T09:39:16;102556.03;;;6.48;88.09
22440;BME280;11387;51.612;7.210;2023-02-11T09:42:05;102560.28;;;6.43;88.79
22440;BME280;11387;51.612;7.210;2023-02-11T09:44:36;102554.94;;;6.55;88.30
22440;BME280;11387;51.612;7.210;2023-02-11T09:47:20;102567.53;;;6.50;88.20
22440;BME280;11387;51.612;7.210;2023-02-11T09:49:52;102563.53;;;6.52;88.16
22440;BME280;11387;51.612;7.210;2023-02-11T09:52:29;102565.25;;;6.47;88.40
22440;BME280;11387;51.612;7.210;2023-02-11T09:55:03;102566.03;;;6.54;88.23
22440;BME280;11387;51.612;7.210;2023-02-11T09:57:33;102577.31;;;6.57;88.36
22440;BME280;11387;51.612;7.210;2023-02-11T10:00:16;102572.03;;;6.62;87.36
22440;BME280;11387;51.612;7.210;2023-02-11T10:03:00;102578.84;;;6.71;86.86
22440;BME280;11387;51.612;7.210;2023-02-11T10:05:41;102575.88;;;6.73;87.29
22440;BME280;11387;51.612;7.210;2023-02-11T10:08:19;102565.25;;;6.71;86.54
22440;BME280;11387;51.612;7.210;2023-02-11T10:10:59;102570.75;;;6.83;86.92
22440;BME280;11387;51.612;7.210;2023-02-11T10:13:45;102571.50;;;6.90;86.67
22440;BME280;11387;51.612;7.210;2023-02-11T10:16:38;102581.94;;;6.93;86.37
22440;BME280;11387;51.612;7.210;2023-02-11T10:19:21;102579.38;;;6.98;86.37
22440;BME280;11387;51.612;7.210;2023-02-11T10:22:01;102579.66;;;7.08;85.97
22440;BME280;11387;51.612;7.210;2023-02-11T10:24:34;102593.44;;;7.14;85.99
22440;BME280;11387;51.612;7.210;2023-02-11T10:27:13;102591.31;;;7.16;85.50
22440;BME280;11387;51.612;7.210;2023-02-11T10:29:47;102590.78;;;7.25;84.90
22440;BME280;11387;51.612;7.210;2023-02-11T10:32:27;102587.38;;;7.12;84.69
22440;BME280;11387;51.612;7.210;2023-02-11T10:35:01;102584.13;;;7.21;85.62
22440;BME280;11387;51.612;7.210;2023-02-11T10:37:31;102594.03;;;7.16;85.90
22440;BME280;11387;51.612;7.210;2023-02-11T10:39:59;102594.19;;;7.21;84.99
22440;BME280;11387;51.612;7.210;2023-02-11T10:42:28;102592.06;;;7.23;84.88
22440;BME280;11387;51.612;7.210;2023-02-11T10:44:59;102603.41;;;7.20;84.97
22440;BME280;11387;51.612;7.210;2023-02-11T10:47:34;102621.78;;;7.24;84.49
22440;BME280;11387;51.612;7.210;2023-02-11T10:50:17;102629.19;;;7.35;85.18
22440;BME280;11387;51.612;7.210;2023-02-11T10:52:46;102626.53;;;7.47;84.36
22440;BME280;11387;51.612;7.210;2023-02-11T10:55:16;102626.53;;;7.47;84.11
22440;BME280;11387;51.612;7.210;2023-02-11T10:57:54;102629.41;;;7.52;84.35
22440;BME280;11387;51.612;7.210;2023-02-11T11:00:33;102629.09;;;7.42;83.63
22440;BME280;11387;51.612;7.210;2023-02-11T11:03:06;102628.19;;;7.48;84.94
22440;BME280;11387;51.612;7.210;2023-02-11T11:05:48;102625.94;;;7.45;84.30
22440;BME280;11387;51.612;7.210;2023-02-11T11:08:17;102630.63;;;7.56;84.22
22440;BME280;11387;51.612;7.210;2023-02-11T11:10:48;102621.69;;;7.49;84.40
22440;BME280;11387;51.612;7.210;2023-02-11T11:13:29;102628.03;;;7.43;84.34
22440;BME280;11387;51.612;7.210;2023-02-11T11:16:23;102632.44;;;7.44;85.04
22440;BME280;11387;51.612;7.210;2023-02-11T11:19:19;102640.31;;;7.52;84.70
22440;BME280;11387;51.612;7.210;2023-02-11T11:21:50;102636.91;;;7.57;84.23
22440;BME280;11387;51.612;7.210;2023-02-11T11:24:21;102633.78;;;7.53;84.43
22440;BME280;11387;51.612;7.210;2023-02-11T11:26:55;102624.09;;;7.57;84.18
22440;BME280;11387;51.612;7.210;2023-02-11T11:29:29;102622.66;;;7.55;84.57
22440;BME280;11387;51.612;7.210;2023-02-11T11:32:01;102629.03;;;7.49;85.71
22440;BME280;11387;51.612;7.210;2023-02-11T11:34:34;102624.72;;;7.41;85.98
22440;BME280;11387;51.612;7.210;2023-02-11T11:37:12;102629.84;;;7.49;86.17
22440;BME280;11387;51.612;7.210;2023-02-11T11:39:55;102616.16;;;7.37;86.72
22440;BME280;11387;51.612;7.210;2023-02-11T11:42:27;102621.22;;;7.34;87.28
22440;BME280;11387;51.612;7.210;2023-02-11T11:44:58;102622.56;;;7.31;87.02
22440;BME280;11387;51.612;7.210;2023-02-11T11:47:31;102622.91;;;7.35;87.74
22440;BME280;11387;51.612;7.210;2023-02-11T11:50:16;102617.22;;;7.55;86.33
22440;BME280;11387;51.612;7.210;2023-02-11T11:52:53;102617.59;;;7.58;86.11
22440;BME280;11387;51.612;7.210;2023-02-11T11:55:26;102616.19;;;7.67;85.52
22440;BME280;11387;51.612;7.210;2023-02-11T11:57:56;102621.31;;;7.75;85.22
22440;BME280;11387;51.612;7.210;2023-02-11T12:00:30;102608.38;;;7.89;84.72
22440;BME280;11387;51.612;7.210;2023-02-11T12:03:29;102626.03;;;7.98;84.12
22440;BME280;11387;51.612;7.210;2023-02-11T12:06:20;102616.91;;;8.04;83.79
22440;BME280;11387;51.612;7.210;2023-02-11T12:09:01;102616.69;;;7.94;84.18
22440;BME280;11387;51.612;7.210;2023-02-11T12:11:37;102613.28;;;7.81;84.06
22440;BME280;11387;51.612;7.210;2023-02-11T12:14:19;102608.00;;;7.86;84.88
22440;BME280;11387;51.612;7.210;2023-02-11T12:16:57;102607.41;;;7.95;84.72
22440;BME280;11387;51.612;7.210;2023-02-11T12:19:50;102607.78;;;7.99;84.16
22440;BME280;11387;51.612;7.210;2023-02-11T12:22:32;102600.91;;;7.96;84.94
22440;BME280;11387;51.612;7.210;2023-02-11T12:25:15;102600.47;;;8.11;84.14
22440;BME280;11387;51.612;7.210;2023-02-11T12:27:55;102594.31;;;8.27;82.77
22440;BME280;11387;51.612;7.210;2023-02-11T12:30:46;102603.09;;;8.29;83.21
22440;BME280;11387;51.612;7.210;2023-02-11T12:33:28;102585.97;;;8.40;82.63
22440;BME280;11387;51.612;7.210;2023-02-11T12:36:07;102585.03;;;8.47;82.68
22440;BME280;11387;51.612;7.210;2023-02-11T12:38:52;102590.59;;;8.52;81.75
22440;BME280;11387;51.612;7.210;2023-02-11T12:41:42;102589.88;;;8.56;81.97
22440;BME280;11387;51.612;7.210;2023-02-11T12:44:42;102587.50;;;8.60;81.61
22440;BME280;11387;51.612;7.210;2023-02-11T12:47:18;102585.75;;;8.54;81.46
22440;BME280;11387;51.612;7.210;2023-02-11T12:50:03;102587.63;;;8.41;81.86
22440;BME280;11387;51.612;7.210;2023-02-11T12:52:52;102590.59;;;8.52;81.76
22440;BME280;11387;51.612;7.210;2023-02-11T12:55:27;102597.00;;;8.46;82.21
22440;BME280;11387;51.612;7.210;2023-02-11T12:57:59;102594.28;;;8.46;82.05
22440;BME280;11387;51.612;7.210;2023-02-11T13:00:37;102596.81;;;8.29;82.60
22440;BME280;11387;51.612;7.210;2023-02-11T13:03:12;102598.13;;;8.26;82.75
22440;BME280;11387;51.612;7.210;2023-02-11T13:05:47;102590.53;;;8.28;83.17
22440;BME280;11387;51.612;7.210;2023-02-11T13:08:22;102587.81;;;8.28;83.34
22440;BME280;11387;51.612;7.210;2023-02-11T13:10:54;102594.22;;;8.22;83.24
22440;BME280;11387;51.612;7.210;2023-02-11T13:13:28;102601.34;;;8.23;83.50
22440;BME280;11387;51.612;7.210;2023-02-11T13:16:02;102599.78;;;8.27;82.96
22440;BME280;11387;51.612;7.210;2023-02-11T13:18:46;102600.38;;;8.29;83.43
22440;BME280;11387;51.612;7.210;2023-02-11T13:21:35;102590.28;;;8.30;83.06
22440;BME280;11387;51.612;7.210;2023-02-11T13:24:14;102588.22;;;8.43;83.40
22440;BME280;11387;51.612;7.210;2023-02-11T13:26:57;102589.06;;;8.44;82.69
22440;BME280;11387;51.612;7.210;2023-02-11T13:29:30;102590.34;;;8.41;82.33
22440;BME280;11387;51.612;7.210;2023-02-11T13:32:09;102590.81;;;8.62;82.79
22440;BME280;11387;51.612;7.210;2023-02-11T13:34:54;102584.78;;;8.71;81.64